Time;durP1;ratioP1;P1;durP2;ratioP2;P2;SDS_P1;SDS_P2;PMS_P1;PMS_P2;Temp;Humidity;BMP_temperature;BMP_pressure;BME280_temperature;BME280_humidity;BME280_pressure;Samples;Min_cycle;Max_cycle;Signal;HPM_P1;HPM_P2
2021/12/19 00:04:23;;;;;;;14.70;3.70;;;7.30;99.90;;;;;;5160546;28;20184;-51
2021/12/19 00:09:42;;;;;;;13.63;3.90;;;7.40;99.90;;;;;;5160494;28;20455;-51
2021/12/19 00:12:13;;;;;;;7.83;3.70;;;7.30;99.90;;;;;;5165154;28;20459;-52
2021/12/19 00:14:44;;;;;;;5.90;3.37;;;7.40;99.90;;;;;;5159003;28;20207;-52
2021/12/19 00:17:14;;;;;;;6.07;2.90;;;7.30;99.90;;;;;;5169905;28;20208;-52
2021/12/19 00:19:48;;;;;;;8.60;3.27;;;7.30;99.90;;;;;;5136991;28;20291;-51
2021/12/19 00:22:18;;;;;;;6.20;3.80;;;7.40;99.90;;;;;;5149331;28;20568;-51
2021/12/19 00:24:49;;;;;;;12.33;3.13;;;7.40;99.90;;;;;;5163310;28;20443;-51
2021/12/19 00:27:19;;;;;;;6.50;2.93;;;7.30;99.90;;;;;;5148828;28;20194;-51
2021/12/19 00:29:50;;;;;;;5.80;2.87;;;7.30;99.90;;;;;;5158404;28;20194;-52
2021/12/19 00:32:20;;;;;;;7.17;3.30;;;7.30;99.90;;;;;;5146058;28;20193;-52
2021/12/19 00:34:51;;;;;;;11.70;2.97;;;7.40;99.90;;;;;;5148353;28;20184;-52
2021/12/19 00:37:22;;;;;;;11.10;3.80;;;7.50;99.90;;;;;;5171234;28;20216;-50
2021/12/19 00:39:52;;;;;;;6.53;2.70;;;7.40;99.90;;;;;;5166436;28;20184;-52
2021/12/19 00:42:33;;;;;;;20.57;6.03;;;7.40;99.90;;;;;;5166375;28;20455;-51
2021/12/19 00:45:16;;;;;;;8.23;3.37;;;7.40;99.90;;;;;;5160206;28;20613;-51
2021/12/19 00:47:46;;;;;;;15.17;3.30;;;7.40;99.90;;;;;;5150039;28;20448;-52
2021/12/19 00:50:17;;;;;;;9.90;3.40;;;7.30;99.90;;;;;;5164904;28;20487;-52
2021/12/19 00:52:48;;;;;;;17.60;4.70;;;7.30;99.90;;;;;;5156493;28;20256;-51
2021/12/19 00:55:21;;;;;;;13.30;5.13;;;7.40;99.90;;;;;;5165040;28;20196;-51
2021/12/19 00:57:51;;;;;;;11.33;3.23;;;7.40;99.90;;;;;;5166436;28;20570;-50
2021/12/19 01:00:26;;;;;;;16.13;4.03;;;7.50;99.90;;;;;;5171118;28;20961;-52
2021/12/19 01:02:59;;;;;;;9.10;4.00;;;7.40;99.90;;;;;;5158427;28;20184;-51
2021/12/19 01:05:33;;;;;;;9.60;4.10;;;7.40;99.90;;;;;;5160359;28;20444;-51
2021/12/19 01:08:05;;;;;;;12.50;4.03;;;7.40;99.90;;;;;;5138427;28;20519;-52
2021/12/19 01:10:36;;;;;;;5.03;3.17;;;7.40;99.90;;;;;;5158981;28;20475;-51
2021/12/19 01:13:06;;;;;;;7.27;3.73;;;7.40;99.90;;;;;;5161343;28;20932;-51
2021/12/19 01:15:37;;;;;;;12.43;4.47;;;7.30;99.90;;;;;;5177233;28;20179;-51
2021/12/19 01:18:09;;;;;;;11.17;4.23;;;7.40;99.90;;;;;;5163109;28;20197;-52
2021/12/19 01:20:41;;;;;;;8.70;3.67;;;7.30;99.90;;;;;;5163605;28;20205;-51
2021/12/19 01:23:12;;;;;;;7.70;3.53;;;7.30;99.90;;;;;;5140945;28;20447;-51
2021/12/19 01:25:43;;;;;;;8.87;3.87;;;7.40;99.90;;;;;;5172395;28;20427;-51
2021/12/19 01:28:13;;;;;;;10.83;3.80;;;7.40;99.90;;;;;;5150307;28;20439;-53
2021/12/19 01:30:44;;;;;;;16.97;3.40;;;7.30;99.90;;;;;;5152900;28;20692;-52
2021/12/19 01:33:15;;;;;;;5.93;3.00;;;7.20;99.90;;;;;;5148628;28;20244;-52
2021/12/19 01:35:46;;;;;;;9.97;3.93;;;7.20;99.90;;;;;;5165955;28;20181;-51
2021/12/19 01:38:16;;;;;;;13.87;3.93;;;7.20;99.90;;;;;;5160575;28;20543;-51
2021/12/19 01:40:47;;;;;;;5.87;4.20;;;7.30;99.90;;;;;;5160573;28;20207;-53
2021/12/19 01:43:24;;;;;;;7.80;4.43;;;7.30;99.90;;;;;;5161172;28;20193;-50
2021/12/19 01:45:55;;;;;;;9.50;4.53;;;7.20;99.90;;;;;;5152783;28;20231;-50
2021/12/19 01:48:26;;;;;;;10.97;5.30;;;7.30;99.90;;;;;;5125757;28;20482;-50
2021/12/19 01:50:57;;;;;;;13.70;4.50;;;7.30;99.90;;;;;;5174963;23;20491;-51
2021/12/19 01:53:28;;;;;;;5.33;4.43;;;7.20;99.90;;;;;;5176313;28;20792;-49
2021/12/19 01:55:59;;;;;;;5.20;4.70;;;7.30;99.90;;;;;;5163323;28;20228;-49
2021/12/19 01:58:29;;;;;;;8.53;5.73;;;7.30;99.90;;;;;;5181671;28;20458;-48
2021/12/19 02:01:01;;;;;;;9.23;4.87;;;7.30;99.90;;;;;;5183084;28;20200;-50
2021/12/19 02:03:32;;;;;;;29.77;6.77;;;7.30;99.90;;;;;;5178866;28;20682;-49
2021/12/19 02:06:04;;;;;;;8.73;5.20;;;7.30;99.90;;;;;;5180753;28;20931;-49
2021/12/19 02:08:34;;;;;;;9.23;4.90;;;7.30;99.90;;;;;;5168017;28;20431;-49
2021/12/19 02:11:05;;;;;;;12.30;4.93;;;7.30;99.90;;;;;;5171461;28;20862;-49
2021/12/19 02:13:38;;;;;;;6.33;4.40;;;7.30;99.90;;;;;;5180117;28;20230;-48
2021/12/19 02:16:09;;;;;;;6.53;4.53;;;7.20;99.90;;;;;;5177911;28;20463;-50
2021/12/19 02:18:40;;;;;;;6.63;5.10;;;7.20;99.90;;;;;;5145014;28;20424;-50
2021/12/19 02:21:10;;;;;;;9.50;4.03;;;7.30;99.90;;;;;;5182662;28;20459;-51
2021/12/19 02:23:41;;;;;;;8.63;4.63;;;7.20;99.90;;;;;;5169451;28;20695;-50
2021/12/19 02:26:14;;;;;;;8.83;4.70;;;7.20;99.90;;;;;;5160965;28;20189;-51
2021/12/19 02:28:44;;;;;;;10.20;3.80;;;7.20;99.90;;;;;;5177538;28;20181;-50
2021/12/19 02:31:15;;;;;;;5.90;3.50;;;7.20;99.90;;;;;;5178348;28;20458;-51
2021/12/19 02:33:58;;;;;;;3.53;3.17;;;7.20;99.90;;;;;;5157538;28;20180;-52
2021/12/19 02:50:21;;;;;;;7.30;2.63;;;7.30;99.90;;;;;;5176792;28;20215;-50
2021/12/19 02:52:53;;;;;;;4.17;2.50;;;7.30;99.90;;;;;;5164482;28;20436;-51
2021/12/19 02:55:23;;;;;;;7.00;2.60;;;7.30;99.90;;;;;;5179548;28;20435;-52
2021/12/19 02:57:54;;;;;;;6.60;2.90;;;7.30;99.90;;;;;;5182108;28;20485;-49
2021/12/19 03:00:26;;;;;;;3.20;2.17;;;7.30;99.90;;;;;;5172480;28;21875;-50
2021/12/19 03:02:56;;;;;;;2.03;1.93;;;7.30;99.90;;;;;;5181029;28;20184;-49
2021/12/19 03:05:30;;;;;;;3.00;2.07;;;7.30;99.90;;;;;;5183158;28;20850;-49
2021/12/19 03:08:03;;;;;;;2.97;1.70;;;7.30;99.90;;;;;;5170444;28;20219;-50
2021/12/19 03:13:34;;;;;;;4.13;1.43;;;7.30;99.90;;;;;;5176603;28;20457;-49
2021/12/19 03:18:54;;;;;;;7.40;1.57;;;7.30;99.90;;;;;;5175789;28;20428;-50
2021/12/19 03:21:25;;;;;;;6.13;2.10;;;7.30;99.90;;;;;;5177667;28;20793;-50
2021/12/19 03:23:56;;;;;;;3.63;1.27;;;7.20;99.90;;;;;;5162415;28;20184;-50
2021/12/19 03:26:26;;;;;;;1.70;1.60;;;7.40;99.90;;;;;;5176915;28;20439;-52
2021/12/19 03:28:57;;;;;;;3.43;1.60;;;7.30;99.90;;;;;;5157394;28;20223;-50
2021/12/19 03:31:27;;;;;;;6.13;1.60;;;7.30;99.90;;;;;;5162412;28;20204;-50
2021/12/19 03:33:59;;;;;;;5.57;1.73;;;7.30;99.90;;;;;;5178198;28;20189;-51
2021/12/19 03:36:30;;;;;;;2.23;1.43;;;7.30;99.90;;;;;;5183181;28;20562;-50
2021/12/19 03:39:13;;;;;;;1.50;1.50;;;7.30;99.90;;;;;;5185749;28;20435;-49
2021/12/19 03:41:43;;;;;;;8.00;1.57;;;7.30;99.90;;;;;;5166107;28;20493;-50
2021/12/19 03:44:14;;;;;;;2.93;2.00;;;7.30;99.90;;;;;;5172897;28;20949;-49
2021/12/19 03:46:44;;;;;;;2.60;2.10;;;7.30;99.90;;;;;;5176309;28;20231;-50
2021/12/19 03:49:18;;;;;;;5.30;1.60;;;7.30;99.90;;;;;;5180455;28;20693;-50
2021/12/19 03:51:48;;;;;;;1.63;1.53;;;7.30;99.90;;;;;;5177661;28;20216;-49
2021/12/19 03:54:19;;;;;;;5.43;1.73;;;7.40;99.90;;;;;;5164730;28;21044;-49
2021/12/19 03:56:49;;;;;;;3.23;1.90;;;7.30;99.90;;;;;;5182759;28;20204;-49
2021/12/19 03:59:20;;;;;;;6.90;2.20;;;7.30;99.90;;;;;;5170834;28;20254;-49
2021/12/19 04:01:52;;;;;;;3.90;2.00;;;7.30;99.90;;;;;;5156388;28;20747;-50
2021/12/19 04:04:23;;;;;;;3.13;1.97;;;7.30;99.90;;;;;;5156509;28;20246;-50
2021/12/19 04:06:54;;;;;;;6.10;2.30;;;7.30;99.90;;;;;;5177384;28;20439;-49
2021/12/19 04:09:25;;;;;;;2.03;1.93;;;7.30;99.90;;;;;;5182224;28;20184;-49
2021/12/19 04:11:56;;;;;;;7.83;3.30;;;7.30;99.90;;;;;;5143624;28;20528;-51
2021/12/19 04:14:26;;;;;;;3.20;3.00;;;7.40;99.90;;;;;;5168414;28;20199;-52
2021/12/19 04:16:57;;;;;;;3.00;2.80;;;7.30;99.90;;;;;;5165905;28;20458;-51
2021/12/19 04:19:28;;;;;;;2.87;2.60;;;7.30;99.90;;;;;;5173804;28;20193;-50
2021/12/19 04:22:00;;;;;;;3.93;2.60;;;7.30;99.90;;;;;;5183078;28;20195;-51
2021/12/19 04:24:30;;;;;;;2.90;2.70;;;7.40;99.90;;;;;;5158536;28;20522;-50
2021/12/19 04:27:01;;;;;;;3.83;2.67;;;7.40;99.90;;;;;;5165146;28;20517;-49
2021/12/19 04:29:31;;;;;;;5.00;3.03;;;7.30;99.90;;;;;;5173606;28;20196;-50
2021/12/19 04:32:03;;;;;;;4.00;2.67;;;7.30;99.90;;;;;;5175146;28;20205;-49
2021/12/19 04:34:33;;;;;;;12.23;3.60;;;7.40;99.90;;;;;;5160089;28;20195;-50
2021/12/19 04:37:23;;;;;;;7.23;3.23;;;7.40;99.90;;;;;;5178932;28;20471;-50
2021/12/19 04:40:02;;;;;;;10.40;3.50;;;7.40;99.90;;;;;;5184108;28;20176;-49
2021/12/19 04:54:33;;;;;;;5.00;3.13;;;7.40;99.90;;;;;;5181592;28;20450;-50
2021/12/19 04:56:35;;;;;;;11.17;3.60;;;7.30;99.90;;;;;;5167679;28;21016;-50
2021/12/19 04:59:36;;;;;;;4.20;3.10;;;7.30;99.90;;;;;;5180360;28;20431;-49
2021/12/19 05:15:36;;;;;;;12.80;3.33;;;7.20;99.90;;;;;;5179064;28;20535;-48
2021/12/19 05:18:09;;;;;;;10.63;3.60;;;7.20;99.90;;;;;;5165573;28;20463;-51
2021/12/19 05:20:50;;;;;;;4.73;3.20;;;7.10;99.90;;;;;;5180273;28;20542;-51
2021/12/19 05:23:32;;;;;;;7.43;3.00;;;7.20;99.90;;;;;;5173786;28;20478;-49
2021/12/19 05:26:03;;;;;;;5.63;3.27;;;7.10;99.90;;;;;;5178819;28;20438;-50
2021/12/19 05:28:33;;;;;;;5.37;3.10;;;7.10;99.90;;;;;;5163661;28;22225;-50
2021/12/19 05:31:04;;;;;;;8.47;3.20;;;7.10;99.90;;;;;;5158927;28;20749;-50
2021/12/19 05:33:35;;;;;;;8.67;3.90;;;7.10;99.90;;;;;;5161384;28;20660;-51
2021/12/19 05:47:06;;;;;;;10.63;3.10;;;7.00;99.90;;;;;;5166081;28;20446;-49
2021/12/19 05:49:36;;;;;;;14.57;2.63;;;7.00;99.90;;;;;;5171292;28;20431;-49
2021/12/19 05:52:07;;;;;;;6.80;3.30;;;7.00;99.90;;;;;;5174205;28;20223;-49
2021/12/19 05:54:37;;;;;;;3.77;2.53;;;7.00;99.90;;;;;;5162452;28;20186;-50
2021/12/19 05:57:09;;;;;;;5.33;2.50;;;7.10;99.90;;;;;;5176690;28;20292;-51
2021/12/19 05:59:40;;;;;;;12.47;2.30;;;7.00;99.90;;;;;;5173471;28;20177;-51
2021/12/19 06:02:10;;;;;;;10.60;2.47;;;7.00;99.90;;;;;;5158486;28;20457;-51
2021/12/19 06:04:40;;;;;;;4.97;2.30;;;7.00;99.90;;;;;;5176597;28;20275;-49
2021/12/19 06:07:11;;;;;;;6.10;2.40;;;7.10;99.90;;;;;;5179285;28;20200;-50
2021/12/19 06:09:42;;;;;;;6.50;2.63;;;7.10;99.90;;;;;;5160388;28;20334;-50
2021/12/19 06:12:12;;;;;;;5.40;2.60;;;7.10;99.90;;;;;;5179919;28;20279;-49
2021/12/19 06:14:43;;;;;;;8.33;3.10;;;7.10;99.90;;;;;;5172624;28;20247;-50
2021/12/19 06:17:13;;;;;;;5.43;2.37;;;7.10;99.90;;;;;;5166488;28;20671;-49
2021/12/19 06:19:44;;;;;;;8.10;2.80;;;7.10;99.90;;;;;;5154849;28;20191;-49
2021/12/19 06:22:15;;;;;;;9.37;2.17;;;7.00;99.90;;;;;;5174251;28;20223;-50
2021/12/19 06:24:45;;;;;;;3.67;2.50;;;7.10;99.90;;;;;;5154152;28;20945;-49
2021/12/19 06:27:16;;;;;;;4.87;2.40;;;7.00;99.90;;;;;;5177034;28;20199;-48
2021/12/19 06:29:46;;;;;;;8.47;2.57;;;7.00;99.90;;;;;;5178373;28;20197;-50
2021/12/19 06:32:17;;;;;;;3.53;1.90;;;7.00;99.90;;;;;;5167546;28;20211;-50
2021/12/19 06:34:48;;;;;;;2.17;2.00;;;6.90;99.90;;;;;;5170092;28;20192;-49
2021/12/19 06:37:18;;;;;;;5.27;3.47;;;7.00;99.90;;;;;;5162410;28;20878;-51
2021/12/19 06:39:49;;;;;;;6.00;2.60;;;7.00;99.90;;;;;;5175225;28;20175;-49
2021/12/19 06:42:21;;;;;;;5.27;2.10;;;7.00;99.90;;;;;;5178226;28;20235;-50
2021/12/19 06:44:51;;;;;;;2.53;2.00;;;6.90;99.90;;;;;;5173531;28;20583;-49
2021/12/19 06:47:22;;;;;;;10.83;2.87;;;6.90;99.90;;;;;;5171746;28;20439;-50
2021/12/19 06:49:52;;;;;;;5.83;2.50;;;6.90;99.90;;;;;;5168853;28;20189;-50
2021/12/19 06:52:23;;;;;;;5.40;2.70;;;6.90;99.90;;;;;;5155939;28;20605;-51
2021/12/19 06:54:53;;;;;;;3.70;2.30;;;6.90;99.90;;;;;;5178637;28;20207;-51
2021/12/19 06:57:24;;;;;;;2.40;1.70;;;6.90;99.90;;;;;;5163478;28;20230;-49
2021/12/19 06:59:54;;;;;;;2.63;1.50;;;6.90;99.90;;;;;;5172399;28;20640;-49
2021/12/19 07:02:25;;;;;;;14.83;1.83;;;6.80;99.90;;;;;;5160140;28;20282;-51
2021/12/19 07:04:56;;;;;;;6.77;1.77;;;6.90;99.90;;;;;;5156653;28;20254;-49
2021/12/19 07:07:27;;;;;;;2.47;1.33;;;6.80;99.90;;;;;;5177771;28;20183;-49
2021/12/19 07:09:58;;;;;;;1.00;1.00;;;6.90;99.90;;;;;;5167999;28;20223;-50
2021/12/19 07:12:29;;;;;;;2.77;1.40;;;6.90;99.90;;;;;;5178049;28;20574;-51
2021/12/19 07:14:59;;;;;;;4.80;1.50;;;6.90;99.90;;;;;;5147711;28;20510;-50
2021/12/19 07:17:30;;;;;;;4.53;1.73;;;6.90;99.90;;;;;;5145978;28;20618;-51
2021/12/19 07:20:01;;;;;;;1.60;1.50;;;6.90;99.90;;;;;;5172551;28;20180;-50
2021/12/19 07:22:31;;;;;;;0.93;0.93;;;6.90;99.90;;;;;;5175609;28;20204;-49
2021/12/19 07:25:02;;;;;;;2.40;1.20;;;6.80;99.90;;;;;;5167642;28;20204;-51
2021/12/19 07:27:33;;;;;;;7.83;1.00;;;6.90;99.90;;;;;;5177568;28;20183;-49
2021/12/19 07:30:06;;;;;;;2.00;1.57;;;6.80;99.90;;;;;;5170217;28;20815;-49
2021/12/19 07:32:38;;;;;;;8.50;1.63;;;6.90;99.90;;;;;;5161274;28;20180;-49
2021/12/19 07:35:10;;;;;;;7.50;2.07;;;6.80;99.90;;;;;;5160229;28;20439;-51
2021/12/19 07:37:41;;;;;;;7.00;2.40;;;6.90;99.90;;;;;;5162611;28;20467;-51
2021/12/19 07:40:15;;;;;;;2.50;2.30;;;6.90;99.90;;;;;;5176494;28;20431;-51
2021/12/19 07:42:46;;;;;;;1.97;1.70;;;6.90;99.90;;;;;;5173233;28;20433;-50
2021/12/19 07:45:17;;;;;;;5.67;1.87;;;6.80;99.90;;;;;;5172188;28;20439;-51
2021/12/19 07:47:47;;;;;;;12.10;2.40;;;6.80;99.90;;;;;;5173952;28;20191;-51
2021/12/19 07:53:03;;;;;;;2.60;1.70;;;6.80;99.90;;;;;;5153568;28;20248;-50
2021/12/19 07:55:34;;;;;;;1.60;1.50;;;6.80;99.90;;;;;;5163858;28;20962;-50
2021/12/19 07:58:05;;;;;;;1.47;1.30;;;6.80;99.90;;;;;;5157617;28;20506;-51
2021/12/19 08:00:35;;;;;;;3.63;1.57;;;6.70;99.90;;;;;;5137156;28;20506;-52
2021/12/19 08:03:06;;;;;;;2.13;1.27;;;6.70;99.90;;;;;;5151823;28;20189;-51
2021/12/19 08:05:36;;;;;;;1.83;1.23;;;6.70;99.90;;;;;;5159255;28;20187;-50
2021/12/19 08:08:10;;;;;;;2.87;1.13;;;6.60;99.90;;;;;;5131199;28;20184;-52
2021/12/19 08:13:11;;;;;;;5.83;1.10;;;6.60;99.90;;;;;;5153379;28;20801;-52
2021/12/19 08:15:41;;;;;;;1.83;1.40;;;6.60;99.90;;;;;;5151552;28;20192;-51
2021/12/19 08:18:12;;;;;;;3.80;1.13;;;6.60;99.90;;;;;;5156476;28;20318;-49
2021/12/19 08:20:42;;;;;;;1.27;1.17;;;6.70;99.90;;;;;;5139893;28;20259;-51
2021/12/19 08:23:13;;;;;;;2.93;1.17;;;6.60;99.90;;;;;;5156406;28;20223;-51
2021/12/19 08:25:44;;;;;;;1.60;0.80;;;6.70;99.90;;;;;;5148778;28;20272;-51
2021/12/19 08:28:14;;;;;;;0.93;0.83;;;6.70;99.90;;;;;;5150784;28;20588;-50
2021/12/19 08:30:45;;;;;;;2.30;0.80;;;6.60;99.90;;;;;;5141358;28;20208;-53
2021/12/19 08:33:16;;;;;;;3.90;1.30;;;6.70;99.90;;;;;;5157284;28;20550;-51
2021/12/19 08:35:46;;;;;;;1.13;1.10;;;6.50;99.90;;;;;;5151077;28;20208;-51
2021/12/19 08:38:17;;;;;;;2.10;1.20;;;6.50;99.90;;;;;;5140696;28;20209;-51
2021/12/19 08:40:49;;;;;;;2.70;1.53;;;6.40;99.90;;;;;;5141468;28;20223;-50
2021/12/19 08:43:20;;;;;;;1.73;1.10;;;6.50;99.90;;;;;;5142147;28;20273;-52
2021/12/19 08:45:51;;;;;;;0.80;0.80;;;6.40;99.90;;;;;;5158495;28;20436;-51
2021/12/19 08:48:21;;;;;;;1.27;1.10;;;6.50;99.90;;;;;;5159250;28;20289;-51
2021/12/19 08:50:52;;;;;;;2.60;1.23;;;6.40;99.90;;;;;;5159281;28;20471;-51
2021/12/19 08:53:23;;;;;;;1.33;1.07;;;6.40;99.90;;;;;;5120441;28;20189;-52
2021/12/19 08:55:53;;;;;;;0.90;0.90;;;6.50;99.90;;;;;;5142351;28;20228;-55
2021/12/19 08:58:25;;;;;;;1.57;1.13;;;6.50;99.90;;;;;;5156591;28;20185;-52
2021/12/19 09:01:01;;;;;;;3.20;1.40;;;6.50;99.90;;;;;;5145030;28;20209;-51
2021/12/19 09:03:32;;;;;;;1.37;1.27;;;6.60;99.90;;;;;;5140481;28;20489;-50
2021/12/19 09:06:04;;;;;;;1.30;1.20;;;6.60;99.90;;;;;;5159240;28;20505;-51
2021/12/19 09:08:34;;;;;;;2.50;1.00;;;6.60;99.90;;;;;;5156103;28;20448;-52
2021/12/19 09:11:05;;;;;;;2.20;0.90;;;6.60;99.90;;;;;;5136353;28;20472;-51
2021/12/19 09:13:36;;;;;;;1.87;1.13;;;6.60;99.90;;;;;;5138052;28;20630;-51
2021/12/19 09:16:06;;;;;;;0.63;0.60;;;6.50;99.90;;;;;;5141331;28;20672;-52
2021/12/19 09:18:37;;;;;;;0.40;0.40;;;6.60;99.90;;;;;;5138483;28;20590;-50
2021/12/19 09:21:08;;;;;;;1.53;1.20;;;6.60;99.90;;;;;;5143997;28;20208;-51
2021/12/19 09:23:38;;;;;;;2.13;0.70;;;6.50;99.90;;;;;;5141951;28;20188;-52
2021/12/19 09:26:09;;;;;;;1.30;1.30;;;6.50;99.90;;;;;;5128888;28;20190;-51
2021/12/19 09:28:40;;;;;;;0.97;0.97;;;6.50;99.90;;;;;;5154398;28;20189;-52
2021/12/19 09:31:10;;;;;;;1.60;1.50;;;6.40;99.90;;;;;;5150866;28;20212;-51
2021/12/19 09:33:41;;;;;;;1.00;1.00;;;6.50;99.90;;;;;;5159500;28;20485;-51
2021/12/19 09:36:12;;;;;;;0.87;0.87;;;6.60;99.90;;;;;;5153285;28;20333;-51
2021/12/19 09:38:48;;;;;;;7.80;1.50;;;6.60;99.90;;;;;;5156551;28;20201;-51
2021/12/19 09:41:28;;;;;;;1.90;0.90;;;6.50;99.90;;;;;;5154464;28;20552;-52
2021/12/19 09:44:02;;;;;;;1.07;0.97;;;6.50;99.90;;;;;;5150333;28;20439;-53
2021/12/19 09:46:39;;;;;;;2.83;1.60;;;6.50;99.90;;;;;;5141139;28;20483;-51
2021/12/19 09:49:13;;;;;;;1.90;1.40;;;6.50;99.90;;;;;;5156693;28;20830;-52
2021/12/19 09:51:47;;;;;;;1.53;1.13;;;6.60;99.90;;;;;;5143298;28;20843;-53
2021/12/19 09:54:19;;;;;;;12.27;2.13;;;6.60;99.90;;;;;;5144144;28;20440;-51
2021/12/19 09:56:49;;;;;;;3.83;1.53;;;6.60;99.90;;;;;;5137198;28;20551;-51
2021/12/19 09:59:21;;;;;;;2.00;1.27;;;6.60;99.90;;;;;;5138680;28;20456;-53
2021/12/19 10:01:53;;;;;;;4.23;1.43;;;6.60;99.90;;;;;;5154462;28;20347;-51
2021/12/19 10:04:50;;;;;;;5.50;1.40;;;6.60;99.90;;;;;;5158438;28;20884;-52
2021/12/19 10:07:23;;;;;;;5.30;1.50;;;6.50;99.90;;;;;;5150920;28;20449;-51
2021/12/19 10:10:03;;;;;;;10.77;2.23;;;6.60;99.90;;;;;;5127859;28;20440;-52
2021/12/19 10:15:27;;;;;;;5.03;1.57;;;6.60;99.90;;;;;;5157948;28;20447;-51
2021/12/19 10:18:15;;;;;;;2.83;1.37;;;6.60;99.90;;;;;;5154747;28;20472;-50
2021/12/19 10:20:57;;;;;;;2.70;1.50;;;6.50;99.90;;;;;;5142476;28;20523;-51
2021/12/19 10:23:35;;;;;;;3.10;1.47;;;6.60;99.90;;;;;;5161449;28;20466;-49
2021/12/19 10:26:08;;;;;;;2.83;1.53;;;6.70;99.90;;;;;;5160540;28;20879;-53
2021/12/19 10:29:00;;;;;;;4.20;1.13;;;6.70;99.90;;;;;;5151121;28;20792;-51
2021/12/19 10:31:32;;;;;;;3.17;2.30;;;6.70;99.90;;;;;;5165101;28;20459;-51
2021/12/19 10:34:22;;;;;;;2.33;1.23;;;6.70;99.90;;;;;;5140295;28;20531;-51
2021/12/19 10:36:53;;;;;;;2.90;1.60;;;6.60;99.90;;;;;;5154629;28;20475;-51
2021/12/19 10:39:26;;;;;;;17.60;1.70;;;6.60;99.90;;;;;;5138871;28;20444;-52
2021/12/19 10:42:00;;;;;;;3.27;1.60;;;6.60;99.90;;;;;;5142096;28;20224;-55
2021/12/19 10:47:27;;;;;;;5.50;1.90;;;6.70;99.90;;;;;;5155020;28;20444;-52
2021/12/19 10:49:58;;;;;;;2.80;1.77;;;6.70;99.90;;;;;;5140262;28;20444;-51
2021/12/19 10:52:38;;;;;;;6.53;2.30;;;6.80;99.90;;;;;;5133741;28;20566;-51
2021/12/19 10:55:11;;;;;;;4.10;2.50;;;6.80;99.90;;;;;;5156806;28;20197;-52
2021/12/19 10:57:42;;;;;;;4.20;1.80;;;6.80;99.90;;;;;;5157478;28;20472;-52
2021/12/19 11:00:26;;;;;;;3.57;1.43;;;6.80;99.90;;;;;;5150932;28;20448;-51
2021/12/19 11:02:56;;;;;;;4.47;1.47;;;6.80;99.90;;;;;;5135840;28;20456;-51
2021/12/19 11:05:35;;;;;;;1.43;1.13;;;6.80;99.90;;;;;;5138825;28;20440;-50
2021/12/19 11:08:08;;;;;;;4.73;1.93;;;6.80;99.90;;;;;;5134257;28;20185;-51
2021/12/19 11:10:41;;;;;;;2.47;1.43;;;6.90;99.90;;;;;;5135371;28;20882;-52
2021/12/19 11:13:14;;;;;;;4.77;2.17;;;6.80;99.90;;;;;;5146978;28;20718;-51
2021/12/19 11:15:49;;;;;;;1.43;1.23;;;6.80;99.90;;;;;;5148633;28;20642;-51
2021/12/19 11:18:19;;;;;;;4.60;1.50;;;6.90;99.90;;;;;;5148026;28;20472;-53
2021/12/19 11:20:50;;;;;;;4.00;1.40;;;6.90;99.90;;;;;;5149036;28;20486;-51
2021/12/19 11:23:21;;;;;;;1.60;1.50;;;6.90;99.90;;;;;;5137859;28;20216;-53
2021/12/19 11:25:51;;;;;;;1.87;1.63;;;6.90;99.90;;;;;;5153855;28;20331;-51
2021/12/19 11:28:26;;;;;;;1.57;1.40;;;7.00;99.90;;;;;;5130075;28;20259;-51
2021/12/19 11:30:57;;;;;;;4.43;1.30;;;7.00;99.90;;;;;;5148278;28;20556;-51
2021/12/19 11:33:54;;;;;;;2.83;1.80;;;7.10;99.90;;;;;;5157478;28;20444;-52
2021/12/19 11:36:26;;;;;;;3.07;1.60;;;7.00;99.90;;;;;;5150886;28;20994;-52
2021/12/19 11:39:01;;;;;;;4.20;1.90;;;7.00;99.90;;;;;;5155971;28;20499;-51
2021/12/19 11:41:34;;;;;;;3.97;1.90;;;6.90;99.90;;;;;;5152731;28;20468;-51
2021/12/19 11:44:08;;;;;;;5.13;3.27;;;6.90;99.90;;;;;;5157427;28;20452;-53
2021/12/19 11:46:48;;;;;;;3.00;1.70;;;6.90;99.90;;;;;;5140214;28;20435;-52
2021/12/19 11:49:25;;;;;;;2.53;1.57;;;6.90;99.90;;;;;;5138160;28;20433;-52
2021/12/19 11:52:21;;;;;;;11.57;1.80;;;6.90;99.90;;;;;;5153902;28;20631;-53
2021/12/19 11:55:14;;;;;;;9.30;1.53;;;6.90;99.90;;;;;;5160921;28;20952;-54
2021/12/19 11:58:07;;;;;;;4.70;1.90;;;6.90;99.90;;;;;;5154780;28;21027;-52
2021/12/19 12:00:50;;;;;;;5.40;2.37;;;6.80;99.90;;;;;;5154936;28;20436;-53
2021/12/19 12:03:30;;;;;;;4.13;1.70;;;6.80;99.90;;;;;;5141889;28;20570;-51
2021/12/19 12:06:28;;;;;;;4.20;2.13;;;6.80;99.90;;;;;;5158916;28;20535;-52
2021/12/19 12:09:16;;;;;;;3.77;1.93;;;6.80;99.90;;;;;;5157124;28;20448;-52
2021/12/19 12:12:09;;;;;;;1.40;1.20;;;6.80;99.90;;;;;;5144784;28;20468;-53
2021/12/19 12:14:49;;;;;;;5.10;1.50;;;6.70;99.90;;;;;;5156806;28;20878;-52
2021/12/19 12:17:29;;;;;;;2.17;1.70;;;6.90;99.90;;;;;;5154389;28;20467;-51
2021/12/19 12:20:14;;;;;;;6.30;2.53;;;6.90;99.90;;;;;;5157766;28;20447;-52
2021/12/19 12:22:58;;;;;;;4.30;1.50;;;6.80;99.90;;;;;;5157772;28;20931;-52
2021/12/19 12:25:33;;;;;;;5.93;1.73;;;6.80;99.90;;;;;;5160100;28;20424;-53
2021/12/19 12:28:09;;;;;;;9.40;2.20;;;6.90;99.90;;;;;;5141099;28;20444;-52
2021/12/19 12:30:45;;;;;;;4.43;1.63;;;6.80;99.90;;;;;;5141393;28;20443;-53
2021/12/19 12:33:20;;;;;;;5.87;1.80;;;6.90;99.90;;;;;;5135937;28;20433;-53
2021/12/19 12:35:54;;;;;;;7.60;3.17;;;6.90;99.90;;;;;;5157025;28;20478;-52
2021/12/19 12:38:25;;;;;;;3.80;1.60;;;6.90;99.90;;;;;;5139103;28;20572;-54
2021/12/19 12:41:03;;;;;;;8.13;1.97;;;6.80;99.90;;;;;;5140407;28;20498;-52
2021/12/19 12:43:43;;;;;;;2.07;1.80;;;6.80;99.90;;;;;;5142665;28;20470;-53
2021/12/19 12:46:18;;;;;;;2.13;1.30;;;6.80;99.90;;;;;;5158417;28;20435;-51
2021/12/19 12:48:52;;;;;;;7.43;1.47;;;6.90;99.90;;;;;;5155632;28;20472;-53
2021/12/19 12:51:28;;;;;;;3.60;1.37;;;6.90;99.90;;;;;;5159473;28;20463;-53
2021/12/19 12:54:09;;;;;;;2.67;1.20;;;6.90;99.90;;;;;;5162009;28;20431;-52
2021/12/19 12:56:54;;;;;;;3.70;1.83;;;6.80;99.90;;;;;;5158774;28;20474;-52
2021/12/19 12:59:28;;;;;;;3.80;1.60;;;6.90;99.90;;;;;;5135315;28;20436;-52
2021/12/19 13:04:43;;;;;;;3.90;1.50;;;6.80;99.90;;;;;;5159357;28;20512;-53
2021/12/19 13:07:20;;;;;;;3.97;2.73;;;6.80;99.90;;;;;;5149108;28;20754;-53
2021/12/19 13:09:57;;;;;;;3.63;1.90;;;6.80;99.90;;;;;;5133811;28;20582;-52
2021/12/19 13:12:31;;;;;;;6.97;2.37;;;6.90;99.90;;;;;;5139073;28;20550;-54
2021/12/19 13:15:12;;;;;;;3.60;1.30;;;6.90;99.90;;;;;;5155991;28;20459;-53
2021/12/19 13:17:48;;;;;;;1.90;1.50;;;6.80;99.90;;;;;;5135104;28;20722;-53
2021/12/19 13:20:24;;;;;;;4.50;1.60;;;6.80;99.90;;;;;;5138921;28;20467;-52
2021/12/19 13:22:57;;;;;;;5.10;1.73;;;6.70;99.90;;;;;;5155611;28;20867;-52
2021/12/19 13:25:39;;;;;;;5.90;1.33;;;6.70;99.90;;;;;;5136397;28;20433;-52
2021/12/19 13:28:12;;;;;;;5.37;1.70;;;6.70;99.90;;;;;;5149751;28;20552;-53
2021/12/19 13:30:46;;;;;;;2.50;1.50;;;6.70;99.90;;;;;;5156654;28;20552;-54
2021/12/19 13:33:19;;;;;;;5.33;1.70;;;6.70;99.90;;;;;;5150290;28;20443;-52
2021/12/19 13:35:56;;;;;;;3.23;1.30;;;6.70;99.90;;;;;;5131272;28;20448;-53
2021/12/19 13:38:28;;;;;;;1.50;1.00;;;6.80;99.90;;;;;;5135691;28;20468;-52
2021/12/19 13:41:05;;;;;;;1.73;1.20;;;6.80;99.90;;;;;;5142618;28;20543;-53
2021/12/19 13:43:38;;;;;;;8.23;4.03;;;6.80;99.90;;;;;;5138522;28;20437;-54
2021/12/19 13:46:11;;;;;;;3.33;2.03;;;6.80;99.90;;;;;;5156001;28;20924;-54
2021/12/19 13:48:51;;;;;;;3.00;1.50;;;6.70;99.90;;;;;;5141656;28;20444;-52
2021/12/19 13:51:24;;;;;;;8.63;1.80;;;6.70;99.90;;;;;;5160737;23;20606;-52
2021/12/19 13:53:59;;;;;;;3.27;1.60;;;6.70;99.90;;;;;;5149981;28;21198;-52
2021/12/19 13:56:34;;;;;;;14.83;2.23;;;6.80;99.90;;;;;;5144090;28;20472;-51
2021/12/19 13:59:16;;;;;;;6.70;3.60;;;6.80;99.90;;;;;;5153240;28;20439;-53
2021/12/19 14:01:47;;;;;;;2.80;2.60;;;6.80;99.90;;;;;;5158578;28;20463;-51
2021/12/19 14:04:19;;;;;;;3.20;2.10;;;6.80;99.90;;;;;;5145181;28;20962;-54
2021/12/19 14:06:57;;;;;;;2.30;2.10;;;6.70;99.90;;;;;;5155593;28;20186;-51
2021/12/19 14:09:27;;;;;;;4.87;1.60;;;6.80;99.90;;;;;;5141289;28;20920;-54
2021/12/19 14:12:04;;;;;;;7.13;1.83;;;6.70;99.90;;;;;;5142331;28;20466;-51
2021/12/19 14:14:35;;;;;;;4.53;1.87;;;6.70;99.90;;;;;;5155796;28;20182;-54
2021/12/19 14:17:09;;;;;;;9.47;3.10;;;6.80;99.90;;;;;;5152341;28;20804;-53
2021/12/19 14:19:47;;;;;;;8.30;3.90;;;6.70;99.90;;;;;;5137634;28;22061;-51
2021/12/19 14:22:20;;;;;;;8.90;4.80;;;6.70;99.90;;;;;;5152967;28;20464;-51
2021/12/19 14:24:54;;;;;;;4.57;3.83;;;6.70;99.90;;;;;;5149797;28;20440;-52
2021/12/19 14:27:35;;;;;;;4.30;2.20;;;6.70;99.90;;;;;;5152761;28;20930;-51
2021/12/19 14:30:10;;;;;;;2.53;2.33;;;6.70;99.90;;;;;;5141605;28;20571;-54
2021/12/19 14:32:55;;;;;;;10.07;2.40;;;6.70;99.90;;;;;;5138397;28;20574;-51
2021/12/19 14:35:32;;;;;;;15.43;6.40;;;6.70;99.90;;;;;;5153654;28;20549;-52
2021/12/19 14:38:04;;;;;;;4.53;2.30;;;6.60;99.90;;;;;;5155235;28;20494;-50
2021/12/19 14:40:39;;;;;;;6.30;1.80;;;6.60;99.90;;;;;;5141648;28;20435;-51
2021/12/19 14:43:13;;;;;;;4.83;3.80;;;6.60;99.90;;;;;;5155553;28;20460;-53